Time;durP1;ratioP1;P1;durP2;ratioP2;P2;SDS_P1;SDS_P2;PMS_P1;PMS_P2;Temp;Humidity;BMP_temperature;BMP_pressure;BME280_temperature;BME280_humidity;BME280_pressure;Samples;Min_cycle;Max_cycle;Signal;HPM_P1;HPM_P2
2023/02/20 00:01:02;;;;;;;23.20;10.32;;;;;;;12.96;100.00;102421.41;5095697;28;20104;-50
2023/02/20 00:03:29;;;;;;;27.45;12.52;;;;;;;12.99;100.00;102421.06;5094667;28;20048;-48
2023/02/20 00:05:55;;;;;;;23.73;12.18;;;;;;;13.09;100.00;102418.19;5097256;28;20031;-52
2023/02/20 00:08:21;;;;;;;23.20;12.80;;;;;;;12.90;100.00;102406.81;5097083;28;20032;-51
2023/02/20 00:10:48;;;;;;;27.00;12.35;;;;;;;13.12;100.00;102411.59;5096493;28;20262;-53
2023/02/20 00:13:14;;;;;;;24.88;11.88;;;;;;;13.52;100.00;102401.72;5096024;28;20099;-54
2023/02/20 00:15:39;;;;;;;24.03;12.17;;;;;;;13.32;100.00;102398.59;5098998;28;20036;-51
2023/02/20 00:18:06;;;;;;;24.97;12.27;;;;;;;13.04;100.00;102393.69;5095798;28;20028;-50
2023/02/20 00:20:32;;;;;;;23.42;13.05;;;;;;;13.48;100.00;102392.34;5102512;28;20040;-53
2023/02/20 00:22:57;;;;;;;28.30;13.30;;;;;;;12.97;100.00;102387.31;5096577;28;20035;-50
2023/02/20 00:25:23;;;;;;;24.60;12.15;;;;;;;12.76;100.00;102373.47;5099795;28;20028;-50
2023/02/20 00:27:49;;;;;;;23.60;11.87;;;;;;;12.55;100.00;102354.41;5096543;28;20063;-50
2023/02/20 00:30:18;;;;;;;31.05;12.65;;;;;;;12.43;100.00;102346.69;5092279;28;20292;-52
2023/02/20 00:32:49;;;;;;;23.48;12.60;;;;;;;12.89;100.00;102338.00;5098697;28;20056;-50
2023/02/20 00:35:15;;;;;;;25.35;12.15;;;;;;;12.79;100.00;102328.50;5082086;28;20068;-50
2023/02/20 00:37:41;;;;;;;20.67;10.88;;;;;;;12.71;100.00;102342.78;5097155;28;20033;-49
2023/02/20 00:40:07;;;;;;;25.33;11.17;;;;;;;13.03;100.00;102340.97;5092987;28;20104;-51
2023/02/20 00:42:33;;;;;;;20.20;11.00;;;;;;;13.29;100.00;102332.59;5074576;28;20102;-50
2023/02/20 00:44:58;;;;;;;23.42;10.65;;;;;;;12.99;100.00;102351.22;5096878;28;20056;-47
2023/02/20 00:47:24;;;;;;;25.80;11.30;;;;;;;13.07;100.00;102350.38;5096628;28;20492;-51
2023/02/20 00:49:49;;;;;;;22.27;11.03;;;;;;;13.71;100.00;102343.13;5095731;28;20048;-48
2023/02/20 00:52:15;;;;;;;22.33;10.37;;;;;;;13.15;100.00;102338.75;5075757;28;20269;-49
2023/02/20 00:54:40;;;;;;;28.77;12.52;;;;;;;13.32;100.00;102334.13;5097967;28;20032;-49
2023/02/20 00:57:06;;;;;;;23.30;10.57;;;;;;;13.22;100.00;102342.41;5096386;28;20021;-51
2023/02/20 00:59:31;;;;;;;22.52;11.13;;;;;;;13.21;100.00;102359.53;5080419;28;20028;-51
2023/02/20 01:01:57;;;;;;;21.90;10.17;;;;;;;13.52;100.00;102337.22;5100739;28;20043;-52
2023/02/20 01:04:23;;;;;;;20.10;9.60;;;;;;;13.20;100.00;102337.19;5099999;28;20277;-51
2023/02/20 01:06:48;;;;;;;24.83;11.43;;;;;;;12.64;100.00;102337.25;5078948;28;20040;-51
2023/02/20 01:09:14;;;;;;;27.30;10.80;;;;;;;13.15;100.00;102334.19;5079723;28;20035;-50
2023/02/20 01:11:42;;;;;;;23.40;10.82;;;;;;;13.15;100.00;102328.81;5079948;28;20292;-52
2023/02/20 01:14:07;;;;;;;24.23;11.32;;;;;;;13.11;100.00;102321.28;5078773;28;20038;-50
2023/02/20 01:16:32;;;;;;;27.27;12.03;;;;;;;13.39;100.00;102327.00;5078163;28;20032;-50
2023/02/20 01:18:58;;;;;;;21.70;11.38;;;;;;;13.10;100.00;102308.88;5084328;28;20115;-50
2023/02/20 01:21:24;;;;;;;24.97;11.97;;;;;;;12.72;100.00;102306.88;5095559;28;20059;-51
2023/02/20 01:23:49;;;;;;;21.15;11.48;;;;;;;12.68;100.00;102309.06;5097805;28;20040;-48
2023/02/20 01:26:15;;;;;;;23.43;11.47;;;;;;;13.12;100.00;102299.63;5096610;28;20070;-48
2023/02/20 01:28:51;;;;;;;28.03;11.67;;;;;;;12.77;100.00;102302.66;5086339;28;20284;-50
2023/02/20 01:31:16;;;;;;;23.40;11.25;;;;;;;12.93;100.00;102284.81;5100468;28;20048;-48
2023/02/20 01:33:43;;;;;;;26.97;11.67;;;;;;;13.11;100.00;102279.16;5097826;28;20028;-49
2023/02/20 01:36:10;;;;;;;23.02;10.77;;;;;;;12.61;100.00;102268.69;5093765;28;20017;-49
2023/02/20 01:38:35;;;;;;;27.67;12.32;;;;;;;12.33;100.00;102258.34;5082637;28;20028;-48
2023/02/20 01:41:02;;;;;;;27.23;12.35;;;;;;;12.61;100.00;102251.72;5080334;28;20043;-48
2023/02/20 01:43:28;;;;;;;25.83;11.60;;;;;;;12.71;100.00;102230.03;5106140;28;20052;-51
2023/02/20 01:45:53;;;;;;;21.88;11.35;;;;;;;12.15;100.00;102237.13;5080748;28;20048;-52
2023/02/20 01:48:22;;;;;;;26.87;12.70;;;;;;;12.45;100.00;102221.25;5100219;28;20096;-50
2023/02/20 01:50:51;;;;;;;25.17;11.45;;;;;;;12.88;100.00;102230.78;5094361;28;20044;-51
2023/02/20 01:53:20;;;;;;;28.75;13.02;;;;;;;12.32;100.00;102231.72;5082646;28;20033;-49
2023/02/20 01:55:51;;;;;;;29.05;12.07;;;;;;;12.15;100.00;102233.63;5081398;28;20035;-48
2023/02/20 01:58:38;;;;;;;28.23;12.02;;;;;;;12.66;100.00;102230.56;5080334;28;20036;-50
2023/02/20 02:01:04;;;;;;;32.55;14.05;;;;;;;12.77;100.00;102234.69;5096850;28;20031;-53
2023/02/20 02:03:34;;;;;;;30.05;12.75;;;;;;;12.97;100.00;102220.84;5102485;28;20036;-47
2023/02/20 02:06:04;;;;;;;31.17;13.05;;;;;;;12.70;100.00;102223.00;5098829;28;20036;-50
2023/02/20 02:08:32;;;;;;;28.95;13.93;;;;;;;12.42;100.00;102221.59;5082435;28;20048;-53
2023/02/20 02:11:14;;;;;;;37.28;13.82;;;;;;;12.73;100.00;102215.44;5104624;28;20035;-52
2023/02/20 02:13:42;;;;;;;32.55;13.93;;;;;;;12.70;100.00;102217.63;5100007;28;20036;-48
2023/02/20 02:16:22;;;;;;;26.50;13.32;;;;;;;12.66;100.00;102216.31;5106086;28;20102;-50
2023/02/20 02:18:50;;;;;;;36.28;13.40;;;;;;;12.53;100.00;102225.75;5100168;28;20036;-53
2023/02/20 02:21:51;;;;;;;30.40;13.80;;;;;;;12.69;100.00;102232.91;5081958;28;20032;-50
2023/02/20 02:24:47;;;;;;;39.50;14.07;;;;;;;12.38;100.00;102224.81;5095304;28;20028;-54
2023/02/20 02:27:36;;;;;;;33.35;14.45;;;;;;;12.54;100.00;102207.81;5096631;28;20028;-48
2023/02/20 02:30:01;;;;;;;;;;;;;;;12.19;100.00;102217.00;5098874;28;20054;-51
2023/02/20 02:32:48;;;;;;;31.90;14.50;;;;;;;12.72;100.00;102210.25;5095833;28;19912;-51
2023/02/20 02:35:34;;;;;;;37.75;16.38;;;;;;;12.92;100.00;102216.00;5096365;28;20048;-53
2023/02/20 02:38:15;;;;;;;43.47;18.25;;;;;;;12.61;100.00;102219.53;5079071;28;20055;-52
2023/02/20 02:40:50;;;;;;;34.03;15.02;;;;;;;12.54;100.00;102205.97;5098042;28;20062;-50
2023/02/20 02:43:43;;;;;;;40.10;17.05;;;;;;;12.80;100.00;102210.22;5095838;28;20037;-50
2023/02/20 02:46:20;;;;;;;38.63;16.95;;;;;;;12.77;100.00;102205.16;5100626;28;20029;-54
2023/02/20 02:48:53;;;;;;;30.83;16.10;;;;;;;12.43;100.00;102198.31;5097067;28;20032;-51
2023/02/20 02:51:24;;;;;;;44.05;18.05;;;;;;;12.61;100.00;102208.78;5080445;28;20036;-51
2023/02/20 02:54:07;;;;;;;41.72;17.60;;;;;;;12.86;100.00;102195.22;5096017;28;20078;-50
2023/02/20 02:56:38;;;;;;;39.92;18.25;;;;;;;13.12;100.00;102191.34;5100499;28;20050;-48
2023/02/20 02:59:06;;;;;;;51.97;18.23;;;;;;;12.62;100.00;102199.72;5083075;28;20028;-51
2023/02/20 03:01:36;;;;;;;38.53;19.77;;;;;;;13.29;100.00;102175.97;5098543;28;20036;-48
2023/02/20 03:04:05;;;;;;;44.47;20.00;;;;;;;13.02;100.00;102178.16;5097620;28;20088;-50
2023/02/20 03:06:36;;;;;;;47.10;19.80;;;;;;;12.94;100.00;102176.41;5096140;28;20028;-50
2023/02/20 03:09:15;;;;;;;48.38;20.00;;;;;;;13.33;100.00;102174.59;5080844;28;20109;-50
2023/02/20 03:11:43;;;;;;;46.10;19.55;;;;;;;12.86;100.00;102174.59;5084954;28;20055;-50
2023/02/20 03:17:26;;;;;;;49.50;22.15;;;;;;;13.07;100.00;102170.44;5078299;28;20028;-50
2023/02/20 03:19:53;;;;;;;;;;;;;;;13.13;100.00;102164.31;5083967;28;20075;-53
2023/02/20 03:22:28;;;;;;;46.60;20.67;;;;;;;13.12;100.00;102162.66;5077182;28;19916;-51
2023/02/20 03:25:06;;;;;;;51.78;21.02;;;;;;;13.00;100.00;102164.94;5095663;28;20044;-49
2023/02/20 03:27:51;;;;;;;48.58;21.15;;;;;;;13.73;100.00;102169.88;5079032;28;20024;-51
2023/02/20 03:30:20;;;;;;;51.00;20.30;;;;;;;13.51;100.00;102178.84;5081644;28;20028;-50
2023/02/20 03:43:54;;;;;;;51.47;21.10;;;;;;;13.36;100.00;102179.59;5078246;28;20028;-51
2023/02/20 03:46:22;;;;;;;49.45;21.20;;;;;;;13.79;100.00;102189.78;5082122;28;20048;-53
2023/02/20 03:49:04;;;;;;;49.22;23.10;;;;;;;13.33;100.00;102185.34;5111435;28;20036;-50
2023/02/20 03:51:30;;;;;;;50.20;22.83;;;;;;;13.47;100.00;102194.47;5096943;28;20055;-48
2023/02/20 03:54:02;;;;;;;52.38;21.63;;;;;;;14.00;100.00;102188.22;5075473;28;20048;-51
2023/02/20 03:56:35;;;;;;;58.17;23.23;;;;;;;13.91;100.00;102176.72;5079624;28;20032;-52
2023/02/20 03:59:14;;;;;;;55.28;22.20;;;;;;;13.77;100.00;102175.72;5084026;28;20071;-52
2023/02/20 04:01:42;;;;;;;57.40;23.65;;;;;;;13.41;100.00;102173.69;5076641;28;20041;-54
2023/02/20 04:04:13;;;;;;;55.80;22.60;;;;;;;14.07;100.00;102178.44;5077511;28;20050;-49
2023/02/20 04:06:41;;;;;;;45.60;23.10;;;;;;;13.77;100.00;102181.09;5112768;28;20036;-48
2023/02/20 04:09:13;;;;;;;59.10;23.35;;;;;;;13.55;100.00;102180.94;5078995;28;20088;-51
2023/02/20 04:11:47;;;;;;;52.30;21.55;;;;;;;13.62;100.00;102181.06;5085017;28;20058;-49
2023/02/20 04:14:17;;;;;;;52.13;24.00;;;;;;;13.54;100.00;102170.41;5081463;28;20051;-52
2023/02/20 04:16:51;;;;;;;51.30;23.02;;;;;;;14.01;100.00;102176.47;5078181;28;20039;-51
2023/02/20 04:19:17;;;;;;;57.20;22.67;;;;;;;13.86;100.00;102181.84;5098097;28;20036;-53
2023/02/20 04:21:54;;;;;;;54.17;22.65;;;;;;;13.70;100.00;102169.41;5076926;28;20041;-50
2023/02/20 04:24:25;;;;;;;58.10;24.25;;;;;;;14.20;100.00;102167.00;5096041;28;20033;-52
2023/02/20 04:26:51;;;;;;;48.90;21.30;;;;;;;14.22;100.00;102180.25;5095732;28;20099;-54
2023/02/20 04:29:20;;;;;;;50.00;22.02;;;;;;;13.86;100.00;102180.00;5083690;28;20032;-53
2023/02/20 04:31:46;;;;;;;54.50;23.30;;;;;;;13.85;100.00;102169.41;5104462;28;20055;-49
2023/02/20 04:34:12;;;;;;;54.20;24.05;;;;;;;13.81;100.00;102171.63;5082193;28;20044;-49
2023/02/20 04:36:38;;;;;;;57.28;20.83;;;;;;;13.94;100.00;102170.16;5085388;28;20108;-50
2023/02/20 04:39:04;;;;;;;64.60;22.30;;;;;;;13.72;100.00;102173.56;5081914;28;20407;-51
2023/02/20 04:41:31;;;;;;;56.47;22.42;;;;;;;13.38;100.00;102168.66;5084386;28;20039;-51
2023/02/20 04:46:45;;;;;;;51.67;20.67;;;;;;;13.53;100.00;102168.72;5080831;28;20029;-50
2023/02/20 04:49:11;;;;;;;;;;;;;;;13.72;100.00;102164.69;5087082;28;20032;-50
2023/02/20 04:51:38;;;;;;;53.03;18.95;;;;;;;13.87;100.00;102162.84;5083277;28;19913;-52
2023/02/20 04:54:03;;;;;;;46.37;19.13;;;;;;;13.35;100.00;102161.81;5098531;28;20044;-49
2023/02/20 04:56:30;;;;;;;58.40;20.70;;;;;;;13.67;100.00;102175.16;5079905;28;20101;-49
2023/02/20 04:58:56;;;;;;;53.45;20.55;;;;;;;13.65;100.00;102164.56;5080623;28;20269;-51
2023/02/20 05:01:22;;;;;;;51.83;18.95;;;;;;;13.99;100.00;102181.19;5082386;28;20035;-49
2023/02/20 05:03:48;;;;;;;56.63;18.27;;;;;;;13.91;100.00;102161.44;5098667;28;20056;-51
2023/02/20 05:06:13;;;;;;;45.03;18.23;;;;;;;14.08;100.00;102166.66;5095369;28;20067;-49
2023/02/20 05:08:39;;;;;;;46.90;19.15;;;;;;;13.31;100.00;102171.25;5099778;28;20043;-51
2023/02/20 05:11:04;;;;;;;39.20;19.53;;;;;;;13.41;100.00;102160.25;5095140;28;20040;-49
2023/02/20 05:13:30;;;;;;;44.83;18.55;;;;;;;13.75;100.00;102175.91;5102132;28;20064;-52
2023/02/20 05:15:55;;;;;;;41.97;18.30;;;;;;;13.48;100.00;102167.41;5101274;28;20052;-53
2023/02/20 05:18:28;;;;;;;52.80;19.63;;;;;;;13.91;100.00;102163.28;5103421;28;20280;-48
2023/02/20 05:23:39;;;;;;;45.30;18.33;;;;;;;13.54;100.00;102165.84;5097846;28;20029;-53
2023/02/20 05:26:09;;;;;;;48.63;20.03;;;;;;;13.84;100.00;102152.47;5103307;28;20291;-50
2023/02/20 05:28:35;;;;;;;51.90;18.20;;;;;;;14.33;100.00;102152.88;5098237;28;20047;-54
2023/02/20 05:31:00;;;;;;;49.43;22.17;;;;;;;13.63;100.00;102161.22;5101108;28;20336;-51
2023/02/20 05:33:26;;;;;;;58.10;19.43;;;;;;;13.57;100.00;102148.53;5104145;28;20262;-52
2023/02/20 05:35:51;;;;;;;44.37;19.90;;;;;;;13.89;100.00;102141.97;5103141;28;20079;-51
2023/02/20 05:38:18;;;;;;;47.08;17.70;;;;;;;13.88;100.00;102158.28;5101979;28;20306;-51
2023/02/20 05:40:44;;;;;;;39.45;17.25;;;;;;;13.82;100.00;102151.78;5101996;28;20073;-51
2023/02/20 05:43:09;;;;;;;55.47;19.83;;;;;;;13.94;100.00;102148.66;5103427;28;20056;-54
2023/02/20 05:45:34;;;;;;;52.55;20.27;;;;;;;14.26;100.00;102139.34;5101103;28;20028;-51
2023/02/20 05:48:00;;;;;;;49.53;20.17;;;;;;;13.84;100.00;102147.09;5102356;28;20099;-53
2023/02/20 05:50:26;;;;;;;45.88;18.77;;;;;;;13.93;100.00;102146.97;5101435;28;20070;-50
2023/02/20 05:52:51;;;;;;;48.37;18.30;;;;;;;14.38;100.00;102134.31;5097180;28;20127;-52
2023/02/20 05:55:17;;;;;;;57.20;20.60;;;;;;;13.88;100.00;102140.31;5097831;28;20278;-48
2023/02/20 05:57:42;;;;;;;55.30;20.48;;;;;;;13.52;100.00;102142.88;5096722;28;20032;-48
2023/02/20 06:00:09;;;;;;;55.73;19.83;;;;;;;13.71;100.00;102150.38;5103610;28;20095;-53
2023/02/20 06:02:37;;;;;;;46.93;19.73;;;;;;;13.84;100.00;102157.84;5100619;28;20268;-50
2023/02/20 06:05:04;;;;;;;61.97;20.43;;;;;;;14.52;100.00;102142.53;5099938;28;20273;-52
2023/02/20 06:07:30;;;;;;;50.87;20.50;;;;;;;14.20;100.00;102158.94;5104557;28;20028;-52
2023/02/20 06:09:56;;;;;;;45.25;19.17;;;;;;;13.97;100.00;102157.19;5100136;28;20288;-47
2023/02/20 06:12:22;;;;;;;62.35;22.83;;;;;;;14.00;100.00;102164.03;5107022;28;20040;-52
2023/02/20 06:14:47;;;;;;;56.47;21.93;;;;;;;14.17;100.00;102149.38;5095046;28;20103;-48
2023/02/20 06:17:13;;;;;;;49.05;19.30;;;;;;;13.91;100.00;102153.38;5096809;28;20028;-54
2023/02/20 06:19:38;;;;;;;48.60;19.15;;;;;;;14.00;100.00;102142.50;5093247;28;20039;-54
2023/02/20 06:22:04;;;;;;;48.43;19.37;;;;;;;14.58;100.00;102145.28;5100351;28;20055;-50
2023/02/20 06:24:29;;;;;;;43.30;20.67;;;;;;;14.01;100.00;102136.13;5098397;28;20033;-50
2023/02/20 06:26:56;;;;;;;50.45;20.27;;;;;;;14.05;100.00;102146.31;5097929;28;20056;-54
2023/02/20 06:29:22;;;;;;;66.32;18.73;;;;;;;14.13;100.00;102140.00;5097505;28;20043;-52
2023/02/20 06:31:48;;;;;;;46.58;16.83;;;;;;;13.82;100.00;102137.53;5095903;28;20032;-52
2023/02/20 06:34:15;;;;;;;58.22;19.95;;;;;;;14.24;100.00;102145.91;5097000;28;20047;-53
2023/02/20 06:36:41;;;;;;;50.13;17.30;;;;;;;14.22;100.00;102132.69;5098901;28;20044;-49
2023/02/20 06:39:09;;;;;;;45.27;15.43;;;;;;;14.34;100.00;102141.09;5100221;28;20063;-51
2023/02/20 06:41:35;;;;;;;45.97;16.20;;;;;;;13.99;100.00;102146.22;5100559;28;20307;-48
2023/02/20 06:44:00;;;;;;;45.45;18.35;;;;;;;13.89;100.00;102138.44;5094277;28;20288;-51
2023/02/20 06:46:26;;;;;;;39.22;17.40;;;;;;;13.98;100.00;102144.56;5097197;28;20040;-51
2023/02/20 06:48:54;;;;;;;44.23;17.70;;;;;;;14.24;100.00;102149.47;5098130;28;20055;-52
2023/02/20 06:51:31;;;;;;;54.63;17.53;;;;;;;14.26;100.00;102157.31;5097878;28;20036;-51
2023/02/20 06:53:57;;;;;;;38.90;17.23;;;;;;;14.49;100.00;102147.25;5098864;28;20264;-51
2023/02/20 06:56:26;;;;;;;50.07;17.53;;;;;;;14.58;100.00;102144.47;5097834;28;20036;-50
2023/02/20 06:58:53;;;;;;;50.20;19.87;;;;;;;14.12;100.00;102143.72;5096794;28;20261;-49
2023/02/20 07:01:21;;;;;;;54.22;21.13;;;;;;;14.22;100.00;102148.81;5098495;28;20297;-52
2023/02/20 07:03:47;;;;;;;53.07;20.00;;;;;;;14.53;100.00;102155.81;5101137;28;20036;-52
2023/02/20 07:06:13;;;;;;;54.28;19.27;;;;;;;14.38;100.00;102150.47;5101325;28;20273;-53
2023/02/20 07:08:39;;;;;;;48.55;18.98;;;;;;;13.85;100.00;102146.06;5098448;28;20035;-51
2023/02/20 07:11:05;;;;;;;48.63;19.03;;;;;;;14.22;100.00;102167.66;5098960;28;20029;-50
2023/02/20 07:13:30;;;;;;;53.30;20.90;;;;;;;14.80;100.00;102163.38;5104926;28;20043;-52
2023/02/20 07:15:56;;;;;;;49.22;20.50;;;;;;;14.18;100.00;102155.56;5096676;28;20040;-49
2023/02/20 07:18:22;;;;;;;50.13;19.27;;;;;;;14.53;100.00;102160.34;5100764;28;20032;-51
2023/02/20 07:20:52;;;;;;;59.63;20.20;;;;;;;14.17;100.00;102176.28;5097271;28;20039;-49
2023/02/20 07:23:18;;;;;;;49.77;19.60;;;;;;;14.45;100.00;102158.63;5096209;28;20277;-51
2023/02/20 07:25:44;;;;;;;47.30;18.17;;;;;;;14.44;100.00;102171.22;5097830;28;20257;-52
2023/02/20 07:28:10;;;;;;;50.20;17.57;;;;;;;14.46;100.00;102153.03;5097863;28;20043;-52
2023/02/20 07:30:36;;;;;;;46.15;19.95;;;;;;;14.68;100.00;102169.22;5097151;28;20066;-53
2023/02/20 07:33:02;;;;;;;55.27;20.40;;;;;;;14.74;100.00;102159.56;5095322;28;20052;-50
2023/02/20 07:35:27;;;;;;;53.00;22.30;;;;;;;14.48;100.00;102161.75;5096872;28;20409;-51
2023/02/20 07:38:00;;;;;;;48.23;19.87;;;;;;;14.77;100.00;102156.50;5080691;28;20024;-50
2023/02/20 07:40:25;;;;;;;60.83;20.83;;;;;;;14.68;100.00;102154.94;5096670;28;20275;-52
2023/02/20 07:42:51;;;;;;;50.35;20.42;;;;;;;14.69;100.00;102146.66;5097417;28;20058;-50
2023/02/20 07:45:20;;;;;;;57.80;22.83;;;;;;;14.30;100.00;102147.84;5079307;28;20036;-48
2023/02/20 07:47:46;;;;;;;51.47;20.00;;;;;;;14.43;100.00;102137.25;5095778;28;20293;-51
2023/02/20 07:50:14;;;;;;;59.53;21.87;;;;;;;14.09;100.00;102146.78;5092831;28;20032;-53
2023/02/20 07:52:39;;;;;;;49.53;20.40;;;;;;;13.70;100.00;102153.28;5095252;28;20043;-54
2023/02/20 07:55:05;;;;;;;43.33;19.57;;;;;;;14.79;100.00;102145.56;5095240;28;20344;-49
2023/02/20 07:57:34;;;;;;;49.85;19.52;;;;;;;14.65;100.00;102161.53;5103224;28;20045;-49
2023/02/20 07:59:59;;;;;;;52.77;19.47;;;;;;;14.91;100.00;102154.78;5092971;28;20044;-49
2023/02/20 08:02:25;;;;;;;49.00;19.92;;;;;;;14.50;100.00;102142.72;5095418;28;20300;-50
2023/02/20 08:04:50;;;;;;;50.07;18.77;;;;;;;14.52;100.00;102143.38;5077815;28;20052;-53
2023/02/20 08:07:16;;;;;;;54.53;19.67;;;;;;;13.88;100.00;102140.31;5097080;28;20292;-50
2023/02/20 08:09:41;;;;;;;60.57;19.80;;;;;;;14.80;100.00;102141.84;5096004;28;20024;-48
2023/02/20 08:12:06;;;;;;;49.43;19.20;;;;;;;14.55;100.00;102148.38;5093764;28;20036;-48
2023/02/20 08:14:32;;;;;;;38.88;17.88;;;;;;;14.25;100.00;102145.75;5095051;28;20127;-53
2023/02/20 08:16:58;;;;;;;48.80;18.40;;;;;;;14.59;100.00;102151.53;5092582;28;20123;-51
2023/02/20 08:19:23;;;;;;;45.55;18.48;;;;;;;15.20;100.00;102152.97;5094736;28;20052;-52
2023/02/20 08:21:49;;;;;;;45.73;19.10;;;;;;;14.70;100.00;102147.50;5094497;28;20044;-50
2023/02/20 08:24:14;;;;;;;50.97;19.17;;;;;;;14.76;100.00;102157.53;5094510;28;20111;-53
2023/02/20 08:26:48;;;;;;;49.60;19.03;;;;;;;14.79;100.00;102150.94;5096567;28;20044;-50
2023/02/20 08:29:15;;;;;;;49.57;20.10;;;;;;;14.67;100.00;102147.88;5098156;28;20032;-51
2023/02/20 08:31:41;;;;;;;51.07;19.90;;;;;;;15.05;100.00;102170.06;5092489;28;20273;-54
2023/02/20 08:34:07;;;;;;;49.45;19.63;;;;;;;15.40;100.00;102146.91;5093956;28;20300;-49
2023/02/20 08:36:33;;;;;;;51.97;17.63;;;;;;;14.98;100.00;102150.28;5096919;28;20032;-50
2023/02/20 08:38:59;;;;;;;47.15;16.83;;;;;;;14.56;100.00;102152.72;5092608;28;20039;-51
2023/02/20 08:41:25;;;;;;;40.75;16.77;;;;;;;14.83;100.00;102152.22;5091775;28;20047;-49
2023/02/20 08:43:51;;;;;;;43.60;17.53;;;;;;;15.33;100.00;102155.78;5094897;28;20028;-50
2023/02/20 08:46:17;;;;;;;49.55;17.35;;;;;;;14.65;100.00;102163.38;5094987;28;20269;-51
2023/02/20 08:48:43;;;;;;;42.03;17.27;;;;;;;14.82;100.00;102145.16;5096200;28;20047;-49
2023/02/20 08:51:09;;;;;;;53.58;17.17;;;;;;;14.96;100.00;102149.63;5095443;28;20043;-51
2023/02/20 08:53:37;;;;;;;38.67;15.27;;;;;;;15.03;100.00;102155.94;5093622;28;20096;-51
2023/02/20 08:56:04;;;;;;;35.27;14.33;;;;;;;15.33;100.00;102153.06;5097002;28;20036;-50
2023/02/20 08:58:30;;;;;;;41.03;14.67;;;;;;;15.77;100.00;102143.00;5094660;28;20261;-47
2023/02/20 09:00:55;;;;;;;41.17;15.30;;;;;;;14.96;100.00;102156.91;5091677;28;20279;-53
2023/02/20 09:03:22;;;;;;;44.97;16.50;;;;;;;15.24;100.00;102148.88;5096570;28;20051;-50
2023/02/20 09:05:47;;;;;;;35.33;14.65;;;;;;;15.22;100.00;102166.25;5094406;28;20091;-50
2023/02/20 09:08:13;;;;;;;31.92;12.50;;;;;;;15.16;100.00;102160.63;5100151;28;20069;-54
2023/02/20 09:10:39;;;;;;;38.65;12.20;;;;;;;15.09;100.00;102161.56;5097924;28;20132;-53
2023/02/20 09:13:04;;;;;;;35.00;14.07;;;;;;;15.12;100.00;102162.03;5095156;28;20035;-54
2023/02/20 09:15:34;;;;;;;45.83;15.90;;;;;;;15.28;100.00;102174.41;5096846;28;20044;-47
2023/02/20 09:18:00;;;;;;;44.43;15.80;;;;;;;15.39;100.00;102164.09;5098971;28;20592;-51
2023/02/20 09:20:25;;;;;;;33.07;13.97;;;;;;;14.95;100.00;102166.81;5101728;28;20265;-49
2023/02/20 09:22:50;;;;;;;48.57;15.00;;;;;;;15.38;100.00;102146.25;5099999;28;20031;-49
2023/02/20 09:25:16;;;;;;;32.40;13.00;;;;;;;14.87;100.00;102153.50;5103944;28;20028;-51
2023/02/20 09:27:42;;;;;;;39.25;14.60;;;;;;;15.09;100.00;102156.19;5095713;28;20088;-50
2023/02/20 09:30:12;;;;;;;28.70;12.93;;;;;;;15.27;100.00;102151.16;5101694;28;20052;-50
2023/02/20 09:32:37;;;;;;;31.73;13.50;;;;;;;15.39;100.00;102140.69;5099160;28;20029;-53
2023/02/20 09:35:03;;;;;;;34.53;13.87;;;;;;;15.05;100.00;102139.56;5099347;28;20616;-54
2023/02/20 09:37:28;;;;;;;31.13;12.03;;;;;;;15.19;100.00;102143.22;5096754;28;20036;-53
2023/02/20 09:39:54;;;;;;;40.45;14.55;;;;;;;15.52;100.00;102141.81;5099311;28;20036;-49
2023/02/20 09:42:19;;;;;;;35.83;12.17;;;;;;;15.22;100.00;102140.13;5101089;28;20067;-48
2023/02/20 09:45:05;;;;;;;50.27;12.43;;;;;;;15.67;100.00;102139.00;5095653;28;20281;-53
2023/02/20 09:47:49;;;;;;;30.43;11.43;;;;;;;15.65;100.00;102138.34;5099582;28;20131;-55
2023/02/20 09:50:29;;;;;;;24.43;9.10;;;;;;;14.82;100.00;102129.00;5098298;28;20345;-52
2023/02/20 09:53:24;;;;;;;27.57;9.03;;;;;;;15.07;100.00;102132.13;5104403;28;20281;-49
2023/02/20 09:55:51;;;;;;;29.57;8.83;;;;;;;15.14;100.00;102137.56;5100892;28;20346;-51
2023/02/20 09:58:38;;;;;;;36.57;9.93;;;;;;;14.78;100.00;102142.00;5101479;28;20289;-48
2023/02/20 10:01:05;;;;;;;29.17;11.93;;;;;;;15.03;100.00;102137.09;5100961;28;20252;-50
2023/02/20 10:03:50;;;;;;;31.97;10.53;;;;;;;15.24;100.00;102146.19;5096952;28;20281;-49
2023/02/20 10:06:18;;;;;;;31.80;10.60;;;;;;;15.03;100.00;102131.69;5098816;28;20304;-53
2023/02/20 10:08:47;;;;;;;26.37;9.30;;;;;;;15.32;100.00;102135.25;5104941;28;20269;-51
2023/02/20 10:11:26;;;;;;;27.27;9.53;;;;;;;15.24;100.00;102146.19;5102046;28;20273;-50
2023/02/20 10:14:17;;;;;;;30.23;11.80;;;;;;;15.32;100.00;102139.78;5099750;28;20340;-52
2023/02/20 10:16:51;;;;;;;43.80;15.93;;;;;;;15.33;100.00;102147.69;5100005;28;20273;-52
2023/02/20 10:19:16;;;;;;;52.20;18.03;;;;;;;15.27;100.00;102156.56;5098149;28;20347;-49
2023/02/20 10:22:00;;;;;;;39.67;16.70;;;;;;;14.80;100.00;102161.50;5099374;28;20273;-53
2023/02/20 10:24:28;;;;;;;41.23;17.57;;;;;;;15.90;100.00;102161.16;5098320;28;20040;-52
2023/02/20 10:27:20;;;;;;;31.67;12.10;;;;;;;15.32;100.00;102167.59;5097417;28;20291;-49
2023/02/20 10:29:46;;;;;;;31.67;11.90;;;;;;;15.49;100.00;102162.72;5077290;28;20292;-50
2023/02/20 10:32:20;;;;;;;26.02;9.65;;;;;;;15.52;100.00;102166.06;5100686;28;20711;-50
2023/02/20 10:34:57;;;;;;;36.77;9.07;;;;;;;15.30;100.00;102136.44;5094194;28;20052;-48
2023/02/20 10:37:27;;;;;;;19.42;8.82;;;;;;;14.77;100.00;102133.13;5096866;28;20276;-52
2023/02/20 10:40:11;;;;;;;25.83;7.77;;;;;;;14.83;100.00;102168.38;5093504;28;20081;-51
2023/02/20 10:43:00;;;;;;;31.53;9.07;;;;;;;15.58;100.00;102152.63;5094241;28;20291;-51
2023/02/20 10:45:37;;;;;;;26.10;6.87;;;;;;;15.18;100.00;102152.31;5084092;28;20346;-51
2023/02/20 10:48:04;;;;;;;;;;;;;;;14.92;100.00;102148.34;5098208;28;20270;-52
2023/02/20 10:50:39;;;;;;;32.42;7.03;;;;;;;15.09;100.00;102153.50;5097062;28;19923;-49
2023/02/20 10:53:39;;;;;;;24.07;7.87;;;;;;;15.12;100.00;102151.25;5099270;28;20064;-50
2023/02/20 10:56:13;;;;;;;24.80;7.97;;;;;;;14.65;100.00;102172.28;5094177;28;20273;-51
2023/02/20 10:58:46;;;;;;;17.53;6.67;;;;;;;14.86;100.00;102158.03;5096019;28;20265;-49
2023/02/20 11:01:22;;;;;;;21.20;7.40;;;;;;;15.00;100.00;102159.03;5095292;28;20269;-52
2023/02/20 11:04:15;;;;;;;17.53;6.77;;;;;;;15.24;100.00;102140.78;5100904;28;20284;-51
2023/02/20 11:06:49;;;;;;;21.53;6.50;;;;;;;15.23;100.00;102133.72;5095921;28;20312;-50
2023/02/20 11:09:14;;;;;;;16.00;6.53;;;;;;;15.22;100.00;102158.97;5098835;28;20269;-50
2023/02/20 11:11:45;;;;;;;19.80;6.67;;;;;;;14.70;100.00;102156.41;5099604;28;20269;-50
2023/02/20 11:14:19;;;;;;;13.83;5.90;;;;;;;15.11;100.00;102137.97;5098714;28;20033;-51
2023/02/20 11:17:09;;;;;;;22.03;7.50;;;;;;;14.96;100.00;102132.66;5097181;28;20291;-55
2023/02/20 11:19:55;;;;;;;19.83;6.97;;;;;;;15.30;100.00;102149.94;5096214;28;20264;-54
2023/02/20 11:22:50;;;;;;;17.43;6.93;;;;;;;15.14;100.00;102126.78;5098798;28;20292;-50
2023/02/20 11:25:24;;;;;;;19.80;6.93;;;;;;;14.71;100.00;102115.00;5097137;28;20284;-53
2023/02/20 11:27:53;;;;;;;22.83;7.00;;;;;;;14.90;100.00;102107.31;5099422;28;20277;-52
2023/02/20 11:30:54;;;;;;;24.53;7.47;;;;;;;15.24;100.00;102118.38;5097254;28;20284;-50
2023/02/20 11:33:25;;;;;;;19.17;6.57;;;;;;;14.95;100.00;102123.72;5048626;28;20273;-54
2023/02/20 11:35:55;;;;;;;15.97;6.30;;;;;;;15.24;100.00;102148.88;5097415;28;20281;-51